Time;durP1;ratioP1;P1;durP2;ratioP2;P2;SDS_P1;SDS_P2;PMS_P1;PMS_P2;Temp;Humidity;BMP_temperature;BMP_pressure;BME280_temperature;BME280_humidity;BME280_pressure;Samples;Min_cycle;Max_cycle;Signal;HPM_P1;HPM_P2
2021/10/28 00:13:08;;;;;;;60.00;34.50;;;;;;;6.41;80.10;99618.70;235760;1197;22519;-71
2021/10/28 00:18:16;;;;;;;52.90;32.40;;;;;;;6.42;79.95;99619.35;235766;1198;24078;-71
2021/10/28 00:23:19;;;;;;;53.10;32.30;;;;;;;6.39;79.84;99613.98;235680;1198;23633;-72
2021/10/28 00:28:22;;;;;;;51.10;33.30;;;;;;;6.38;79.94;99616.36;235809;1198;22558;-70
2021/10/28 00:33:31;;;;;;;52.70;32.50;;;;;;;6.36;79.77;99612.48;235995;1198;22463;-70
2021/10/28 00:38:34;;;;;;;49.40;31.00;;;;;;;6.34;79.62;99615.54;235839;1190;22446;-70
2021/10/28 00:43:54;;;;;;;51.20;29.90;;;;;;;6.31;79.87;99612.00;235930;1190;24548;-72
2021/10/28 00:48:59;;;;;;;46.80;29.30;;;;;;;6.28;79.68;99612.45;235812;1190;23977;-69
2021/10/28 00:54:05;;;;;;;49.10;29.40;;;;;;;6.24;79.76;99602.23;235760;1184;25329;-71
2021/10/28 00:59:08;;;;;;;45.70;30.30;;;;;;;6.21;79.70;99601.16;236004;1197;22444;-70
2021/10/28 01:04:11;;;;;;;53.90;31.70;;;;;;;6.18;79.88;99602.23;235857;1190;22911;-72
2021/10/28 01:09:14;;;;;;;45.70;30.00;;;;;;;6.17;80.21;99597.95;235746;1198;22432;-71
2021/10/28 01:14:16;;;;;;;43.70;28.00;;;;;;;6.15;79.74;99601.22;235713;1198;24305;-71
2021/10/28 01:19:22;;;;;;;42.30;28.40;;;;;;;6.12;79.73;99591.31;235829;1197;24038;-71
2021/10/28 01:24:25;;;;;;;46.40;28.20;;;;;;;6.11;80.28;99593.80;235981;1198;23249;-71
2021/10/28 01:29:28;;;;;;;42.00;25.60;;;;;;;6.11;80.11;99589.29;235734;1190;24039;-72
2021/10/28 01:34:30;;;;;;;46.70;27.70;;;;;;;6.08;80.03;99587.52;235755;1198;24118;-72
2021/10/28 01:39:33;;;;;;;38.50;25.60;;;;;;;6.04;79.86;99587.39;235822;1190;24158;-72
2021/10/28 01:44:38;;;;;;;41.70;25.40;;;;;;;6.04;79.94;99588.18;235964;1190;22443;-72
2021/10/28 01:49:51;;;;;;;39.90;25.20;;;;;;;6.04;80.28;99589.73;235737;1197;22455;-72
2021/10/28 01:54:53;;;;;;;40.00;24.80;;;;;;;5.98;79.94;99585.21;235707;1190;25367;-72
2021/10/28 01:59:56;;;;;;;37.10;24.10;;;;;;;5.91;79.78;99584.98;235921;1197;22594;-72
2021/10/28 02:05:12;;;;;;;35.00;23.10;;;;;;;5.88;80.24;99585.37;235708;1197;24037;-72
2021/10/28 02:10:41;;;;;;;34.10;22.40;;;;;;;5.87;80.10;99587.20;235722;1190;24408;-72
2021/10/28 02:15:44;;;;;;;;;;;;;;;5.82;80.06;99583.83;235919;1197;25310;-73
2021/10/28 02:20:48;;;;;;;34.30;22.30;;;;;;;5.76;79.85;99587.95;235753;1198;22447;-71
2021/10/28 02:25:51;;;;;;;32.50;21.70;;;;;;;5.73;80.08;99587.33;235760;1198;24110;-71
2021/10/28 02:30:53;;;;;;;37.50;22.80;;;;;;;5.73;80.31;99590.34;235737;1190;22458;-72
2021/10/28 02:35:56;;;;;;;40.10;24.60;;;;;;;5.67;80.01;99591.66;235953;1190;24196;-73
2021/10/28 02:40:58;;;;;;;35.90;21.70;;;;;;;5.65;80.34;99591.73;235862;1197;24047;-72
2021/10/28 02:46:01;;;;;;;34.40;22.50;;;;;;;5.64;80.30;99589.95;235934;1190;24043;-72
2021/10/28 02:51:04;;;;;;;38.60;23.40;;;;;;;5.62;80.30;99594.86;235640;1198;25262;-72
2021/10/28 02:56:06;;;;;;;33.30;21.80;;;;;;;5.58;80.46;99593.89;235688;1198;25304;-70
2021/10/28 03:01:10;;;;;;;34.40;22.50;;;;;;;5.52;79.85;99591.95;235770;1197;24172;-72
2021/10/28 03:06:13;;;;;;;38.40;23.50;;;;;;;5.48;80.03;99585.61;235925;1190;22555;-71
2021/10/28 03:11:17;;;;;;;38.20;23.60;;;;;;;5.44;80.13;99585.52;236025;1197;24089;-72
2021/10/28 03:16:29;;;;;;;40.80;24.10;;;;;;;5.36;80.17;99587.02;236024;1197;22455;-72
2021/10/28 03:27:01;;;;;;;34.90;22.00;;;;;;;5.31;80.11;99584.09;235882;1198;24028;-70
2021/10/28 03:32:04;;;;;;;32.00;21.60;;;;;;;5.28;80.37;99585.09;235763;1198;22434;-70
2021/10/28 03:37:22;;;;;;;35.70;23.20;;;;;;;5.25;80.66;99595.39;235906;1197;22467;-70
2021/10/28 04:16:28;;;;;;;33.10;21.60;;;;;;;4.92;81.16;99600.35;235793;1198;25105;-70
2021/10/28 04:30:09;;;;;;;36.00;22.00;;;;;;;5.02;81.53;99612.95;235861;1198;25521;-72
2021/10/28 04:35:11;;;;;;;35.60;22.10;;;;;;;5.08;81.76;99618.59;235750;1194;25201;-72
2021/10/28 04:40:14;;;;;;;37.00;21.30;;;;;;;5.10;81.89;99616.52;235808;1193;22524;-72
2021/10/28 04:45:17;;;;;;;34.90;21.00;;;;;;;5.13;81.70;99621.73;235670;1190;22444;-73
2021/10/28 04:50:19;;;;;;;36.10;20.80;;;;;;;5.18;82.11;99624.83;235997;1190;22428;-72
2021/10/28 04:55:21;;;;;;;33.20;21.80;;;;;;;5.23;81.94;99623.43;235795;1198;24080;-70
2021/10/28 05:00:25;;;;;;;40.90;23.40;;;;;;;5.19;81.59;99622.29;235763;1198;25275;-71
2021/10/28 05:05:28;;;;;;;36.90;22.10;;;;;;;5.15;81.63;99625.50;235929;1198;22555;-72
2021/10/28 05:10:33;;;;;;;34.40;22.40;;;;;;;5.12;81.19;99617.99;235784;1193;24136;-72
2021/10/28 05:15:36;;;;;;;38.70;24.10;;;;;;;5.09;81.36;99616.41;235863;1198;22645;-72
2021/10/28 05:20:39;;;;;;;40.90;23.80;;;;;;;5.08;81.61;99618.27;235773;1198;24031;-72
2021/10/28 05:25:41;;;;;;;38.30;22.40;;;;;;;5.05;81.01;99615.66;235868;1198;22447;-72
2021/10/28 05:30:58;;;;;;;31.60;20.30;;;;;;;5.03;81.39;99618.32;235958;1192;24052;-70
2021/10/28 05:36:04;;;;;;;35.50;21.60;;;;;;;5.03;81.60;99618.15;235620;1198;24244;-72
2021/10/28 05:41:20;;;;;;;37.40;22.50;;;;;;;5.00;81.60;99622.29;235792;1198;24540;-70
2021/10/28 05:46:29;;;;;;;40.00;21.60;;;;;;;5.00;81.86;99622.49;236176;1193;22455;-70
2021/10/28 05:51:32;;;;;;;39.40;22.20;;;;;;;5.03;81.75;99621.67;237074;1190;23992;-71
2021/10/28 05:56:42;;;;;;;31.10;20.40;;;;;;;5.10;82.05;99621.02;236351;1190;22474;-71
2021/10/28 06:01:58;;;;;;;33.60;20.70;;;;;;;5.16;82.00;99624.52;237055;1190;25051;-71
2021/10/28 06:07:06;;;;;;;36.30;20.60;;;;;;;5.21;81.78;99625.31;236403;1197;24625;-71
2021/10/28 06:12:23;;;;;;;27.70;19.10;;;;;;;5.32;81.89;99625.16;236261;1198;24085;-71
2021/10/28 06:17:50;;;;;;;31.40;19.50;;;;;;;5.42;82.09;99623.27;236924;1190;26067;-72
2021/10/28 06:22:53;;;;;;;28.80;19.10;;;;;;;5.52;82.24;99625.92;236616;1190;22468;-71
2021/10/28 06:27:55;;;;;;;32.50;19.50;;;;;;;5.63;82.28;99627.53;236898;1190;24092;-73
2021/10/28 06:33:09;;;;;;;32.30;19.30;;;;;;;5.84;82.22;99634.44;237436;1190;24286;-71
2021/10/28 06:38:14;;;;;;;32.20;20.10;;;;;;;6.01;81.84;99635.26;236628;1190;22459;-73
2021/10/28 06:43:26;;;;;;;29.60;19.00;;;;;;;6.24;82.34;99640.98;237628;1198;24028;-71
2021/10/28 06:48:30;;;;;;;31.60;20.40;;;;;;;6.41;81.68;99644.05;236640;1190;24073;-71
2021/10/28 06:53:44;;;;;;;33.20;21.40;;;;;;;6.63;82.07;99644.61;236363;1198;25381;-71
2021/10/28 07:04:35;;;;;;;35.10;20.70;;;;;;;7.31;81.02;99652.66;236473;1190;24036;-73
2021/10/28 07:09:41;;;;;;;36.20;21.10;;;;;;;7.32;80.63;99655.07;236375;1197;23703;-73
2021/10/28 07:14:50;;;;;;;32.20;21.70;;;;;;;7.35;80.51;99660.44;236060;1190;23165;-72
2021/10/28 08:29:34;;;;;;;31.40;19.90;;;;;;;9.49;77.95;99647.80;236142;1198;22548;-73
2021/10/28 08:34:37;;;;;;;27.90;18.70;;;;;;;9.75;78.17;99645.77;236286;1190;24007;-71
2021/10/28 08:39:43;;;;;;;29.20;17.20;;;;;;;10.01;77.87;99646.45;236332;1184;24098;-72
2021/10/28 08:44:56;;;;;;;24.60;15.40;;;;;;;10.24;77.05;99644.39;236489;1190;22933;-74
2021/10/28 08:50:08;;;;;;;23.10;14.40;;;;;;;10.45;76.67;99637.86;236514;1191;25328;-75
2021/10/28 09:28:34;;;;;;;16.70;12.00;;;;;;;12.04;73.50;99614.86;236439;1193;22493;-72
2021/10/28 09:44:39;;;;;;;17.90;12.60;;;;;;;12.58;70.65;99616.33;236036;1190;24050;-73
2021/10/28 09:50:03;;;;;;;11.50;8.70;;;;;;;12.76;71.01;99614.13;236211;1193;22501;-72
2021/10/28 10:00:39;;;;;;;12.50;9.10;;;;;;;13.11;69.58;99606.09;236247;1190;24020;-72
2021/10/28 10:05:44;;;;;;;13.20;8.30;;;;;;;13.29;69.22;99603.56;236296;1190;25189;-74
2021/10/28 10:10:58;;;;;;;8.90;7.00;;;;;;;13.48;68.99;99602.80;236260;1190;22415;-74
2021/10/28 10:16:22;;;;;;;11.50;7.90;;;;;;;13.70;68.44;99595.16;236384;1198;22544;-73
2021/10/28 10:21:36;;;;;;;9.90;7.70;;;;;;;13.80;66.67;99594.65;236196;1183;22440;-72
2021/10/28 11:33:27;;;;;;;9.20;6.00;;;;;;;14.98;55.30;99517.00;236513;1190;22466;-74
2021/10/28 12:01:41;;;;;;;10.80;7.10;;;;;;;15.09;55.16;99513.80;236796;1197;22425;-73
2021/10/28 15:36:28;;;;;;;18.40;11.60;;;;;;;12.38;58.76;99393.64;235841;1197;25509;-71
2021/10/28 15:57:27;;;;;;;27.70;16.20;;;;;;;11.52;60.73;99380.50;235673;1190;22531;-71
2021/10/28 16:23:59;;;;;;;45.20;24.60;;;;;;;10.55;62.63;99391.61;235806;1190;25180;-72
2021/10/28 16:29:16;;;;;;;35.40;20.40;;;;;;;10.37;63.28;99388.82;235740;1198;24047;-71
2021/10/28 16:34:20;;;;;;;34.20;21.10;;;;;;;10.24;63.77;99388.60;235861;1190;25332;-73
2021/10/28 16:39:24;;;;;;;36.30;22.00;;;;;;;10.13;64.16;99390.17;235998;1196;24164;-70
2021/10/28 16:44:41;;;;;;;35.50;21.90;;;;;;;10.01;64.72;99392.23;235981;1184;24158;-74
2021/10/28 16:49:44;;;;;;;39.20;23.40;;;;;;;9.87;64.97;99384.84;236083;1190;22434;-73
2021/10/28 16:54:47;;;;;;;43.60;25.20;;;;;;;9.71;65.07;99391.43;236152;1190;24072;-72
2021/10/28 16:59:50;;;;;;;43.00;24.60;;;;;;;9.57;65.51;99387.68;235947;1190;24501;-73
2021/10/28 17:04:52;;;;;;;48.20;25.20;;;;;;;9.48;65.93;99389.64;235896;1193;24084;-71
2021/10/28 17:09:54;;;;;;;53.30;27.50;;;;;;;9.38;66.14;99390.39;236073;1197;24867;-70
2021/10/28 17:14:57;;;;;;;57.30;30.10;;;;;;;9.28;66.21;99388.38;236109;1197;24322;-76
2021/10/28 17:20:05;;;;;;;55.30;31.70;;;;;;;9.16;66.54;99387.13;235839;1190;24949;-71
2021/10/28 17:25:09;;;;;;;62.60;34.70;;;;;;;9.03;66.84;99383.67;235956;1197;22487;-71
2021/10/28 17:30:16;;;;;;;59.20;31.30;;;;;;;8.92;67.17;99384.55;235882;1197;25217;-73
2021/10/28 17:35:18;;;;;;;60.30;34.60;;;;;;;8.86;67.62;99380.78;235928;1198;22562;-72
2021/10/28 17:40:23;;;;;;;61.40;34.10;;;;;;;8.81;68.19;99378.26;236030;1184;24175;-71
2021/10/28 17:45:29;;;;;;;60.70;33.00;;;;;;;8.76;68.27;99375.08;236493;1197;22436;-72
2021/10/28 17:50:31;;;;;;;58.40;31.50;;;;;;;8.69;68.47;99376.92;236072;1197;22442;-71
2021/10/28 17:55:34;;;;;;;54.30;31.60;;;;;;;8.63;68.79;99376.96;235849;1190;23975;-70
2021/10/28 18:00:36;;;;;;;55.90;32.00;;;;;;;8.64;69.10;99370.13;235727;1190;24034;-72
2021/10/28 18:05:40;;;;;;;58.30;33.50;;;;;;;8.64;69.48;99371.89;235794;1183;23760;-73
2021/10/28 18:10:43;;;;;;;54.60;33.40;;;;;;;8.62;69.55;99372.58;235767;1197;24075;-72
2021/10/28 18:15:47;;;;;;;61.70;33.60;;;;;;;8.54;69.56;99372.10;235937;1190;24075;-72
2021/10/28 18:20:49;;;;;;;57.90;33.10;;;;;;;8.46;69.65;99369.45;235690;1190;24190;-73
2021/10/28 18:26:04;;;;;;;57.80;33.80;;;;;;;8.44;70.23;99369.73;235878;1190;24069;-72
2021/10/28 18:31:07;;;;;;;63.30;35.80;;;;;;;8.44;70.55;99372.48;235982;1190;24034;-72
2021/10/28 18:36:12;;;;;;;68.80;39.00;;;;;;;8.41;70.58;99368.11;236079;1197;25347;-71
2021/10/28 18:41:17;;;;;;;77.20;40.80;;;;;;;8.36;70.42;99368.73;236327;1190;22420;-73
2021/10/28 18:46:21;;;;;;;77.70;43.50;;;;;;;8.29;70.48;99365.39;236002;1190;22571;-72
2021/10/28 18:51:26;;;;;;;86.50;49.30;;;;;;;8.26;70.76;99362.38;235841;1190;22658;-73
2021/10/28 18:56:28;;;;;;;94.50;51.40;;;;;;;8.24;70.97;99356.02;236112;1197;22489;-73
2021/10/28 19:01:31;;;;;;;92.30;49.20;;;;;;;8.18;71.12;99355.13;236151;1189;24040;-72
2021/10/28 19:06:34;;;;;;;88.80;46.50;;;;;;;8.09;70.72;99357.15;236164;1190;22423;-71
2021/10/28 19:11:37;;;;;;;80.70;45.60;;;;;;;8.02;70.96;99355.66;235937;1174;22453;-70
2021/10/28 19:16:41;;;;;;;84.00;45.60;;;;;;;7.97;70.95;99350.56;235858;1197;22620;-74
2021/10/28 19:21:44;;;;;;;91.50;48.90;;;;;;;7.91;70.96;99344.86;235999;1197;24101;-73
2021/10/28 19:26:49;;;;;;;92.90;49.70;;;;;;;7.84;70.86;99342.41;236171;1196;22446;-70
2021/10/28 19:32:05;;;;;;;88.40;48.00;;;;;;;7.76;70.61;99341.30;235957;1190;22453;-74
2021/10/28 19:45:04;;;;;;;83.40;45.80;;;;;;;7.67;70.70;99333.71;236059;1190;24049;-73
2021/10/28 19:48:02;;;;;;;85.90;45.00;;;;;;;7.66;70.78;99332.27;236044;1197;24202;-72
2021/10/28 19:53:05;;;;;;;84.10;45.80;;;;;;;7.62;70.66;99325.34;235765;1198;24097;-72
2021/10/28 19:58:11;;;;;;;88.90;45.70;;;;;;;7.55;70.28;99328.60;235879;1190;24263;-73
2021/10/28 20:23:50;;;;;;;86.90;46.20;;;;;;;7.29;70.42;99317.55;235913;1197;22453;-71
2021/10/28 20:28:54;;;;;;;87.00;46.00;;;;;;;7.23;70.40;99318.58;235809;1197;25079;-73
2021/10/28 20:39:08;;;;;;;86.70;45.70;;;;;;;7.08;70.21;99314.85;235981;1190;22416;-72
2021/10/28 20:44:12;;;;;;;88.60;46.50;;;;;;;7.05;70.45;99320.15;235793;1197;25201;-72
2021/10/28 20:49:15;;;;;;;77.70;44.50;;;;;;;7.01;70.47;99314.85;235836;1190;24410;-72
2021/10/28 20:54:17;;;;;;;84.40;44.00;;;;;;;6.95;70.52;99313.67;235973;1197;24038;-72
2021/10/28 20:59:21;;;;;;;82.50;44.80;;;;;;;6.87;70.36;99308.27;236120;1197;22984;-72
2021/10/28 21:04:24;;;;;;;80.20;43.80;;;;;;;6.80;70.52;99305.30;236216;1197;22447;-71
2021/10/28 21:09:27;;;;;;;92.10;47.40;;;;;;;6.77;70.61;99302.88;236616;1197;24032;-70
2021/10/28 21:14:29;;;;;;;82.40;46.70;;;;;;;6.74;70.66;99302.37;236304;1197;22464;-74
2021/10/28 21:19:32;;;;;;;81.90;47.80;;;;;;;6.68;70.65;99302.09;236067;1197;24824;-74
2021/10/28 21:24:38;;;;;;;93.80;46.50;;;;;;;6.60;70.64;99296.45;236032;1197;24576;-74
2021/10/28 21:29:41;;;;;;;85.70;42.60;;;;;;;6.53;70.79;99289.36;236004;1190;24017;-74
2021/10/28 21:34:45;;;;;;;80.60;43.70;;;;;;;6.49;70.89;99282.86;235945;1197;26208;-75
2021/10/28 21:39:49;;;;;;;86.70;45.80;;;;;;;6.46;71.22;99285.86;235945;1190;24095;-74
2021/10/28 21:44:54;;;;;;;73.20;40.80;;;;;;;6.42;71.02;99289.17;235803;1190;25157;-73
2021/10/28 21:49:57;;;;;;;74.70;40.30;;;;;;;6.34;70.98;99285.78;235946;1197;22518;-71
2021/10/28 22:27:30;;;;;;;75.70;40.00;;;;;;;5.91;71.28;99261.95;235615;1197;24075;-73
2021/10/28 22:32:35;;;;;;;72.70;39.70;;;;;;;5.86;71.35;99254.08;235703;1198;24148;-72
2021/10/28 22:37:59;;;;;;;76.30;39.90;;;;;;;5.79;71.46;99253.98;235666;1197;23984;-72
2021/10/28 22:43:11;;;;;;;81.90;41.10;;;;;;;5.69;71.44;99251.81;235822;1197;25157;-75
2021/10/28 22:48:16;;;;;;;81.90;40.60;;;;;;;5.56;71.33;99253.02;235862;1190;22580;-73
2021/10/28 22:53:19;;;;;;;84.90;43.30;;;;;;;5.46;71.36;99252.86;235807;1197;24197;-74
2021/10/28 22:58:26;;;;;;;86.40;44.20;;;;;;;5.32;71.42;99248.52;235754;1197;25232;-73
2021/10/28 23:24:25;;;;;;;77.40;37.50;;;;;;;4.82;72.75;99235.83;235787;1197;24138;-76
2021/10/28 23:29:30;;;;;;;67.60;36.90;;;;;;;4.80;72.64;99229.32;235770;1183;22888;-74
2021/10/28 23:34:33;;;;;;;75.20;38.50;;;;;;;4.77;72.70;99226.37;235792;1190;22456;-73
2021/10/28 23:39:36;;;;;;;71.20;38.20;;;;;;;4.75;72.71;99224.36;235747;1197;25010;-72
2021/10/28 23:44:39;;;;;;;71.50;39.00;;;;;;;4.75;72.97;99222.98;235896;1197;24016;-74
2021/10/28 23:49:41;;;;;;;69.50;37.90;;;;;;;4.76;73.16;99222.67;235834;1190;24008;-73
2021/10/28 23:54:46;;;;;;;65.50;36.70;;;;;;;4.73;72.78;99223.48;235666;1190;25192;-72
2021/10/28 23:59:50;;;;;;;70.30;36.50;;;;;;;4.66;72.61;99225.89;235621;1197;25073;-75
